createdAt,value
2016-11-14T05:09:06.108Z,1030.81
2016-11-14T05:09:46.602Z,1030.85
2016-11-14T05:10:27.107Z,1030.87
2016-11-14T05:11:07.548Z,1030.89
2016-11-14T05:11:48.034Z,1030.88
2016-11-14T05:12:28.537Z,1030.88
2016-11-14T05:13:09.062Z,1030.89
2016-11-14T05:13:49.529Z,1030.94
2016-11-14T05:14:30.163Z,1030.95
2016-11-14T05:15:10.659Z,1030.9
2016-11-14T05:15:51.133Z,1030.93
2016-11-14T05:16:31.945Z,1030.9
2016-11-14T05:17:12.455Z,1030.88
2016-11-14T05:17:52.970Z,1030.91
2016-11-14T05:18:33.455Z,1030.95
2016-11-14T05:19:13.932Z,1030.9
2016-11-14T05:19:54.394Z,1030.92
2016-11-14T05:20:35.027Z,1030.89
2016-11-14T05:21:15.470Z,1030.95
2016-11-14T05:21:56.356Z,1030.9
2016-11-14T05:22:36.783Z,1030.89
2016-11-14T05:23:17.266Z,1030.88
2016-11-14T05:23:58.178Z,1030.9
2016-11-14T05:24:39.256Z,1030.89
2016-11-14T05:25:20.544Z,1030.89
2016-11-14T05:26:00.767Z,1030.85
2016-11-14T05:26:41.241Z,1030.84
2016-11-14T05:27:21.733Z,1030.84
2016-11-14T05:28:03.092Z,1030.82
2016-11-14T05:28:43.464Z,1030.77
2016-11-14T05:29:23.981Z,1030.82
2016-11-14T05:30:04.456Z,1030.8
2016-11-14T05:30:44.923Z,1030.83
2016-11-14T05:31:25.410Z,1030.81
2016-11-14T05:32:06.127Z,1030.82
2016-11-14T05:32:46.572Z,1030.82
2016-11-14T05:33:27.033Z,1030.83
2016-11-14T05:34:07.794Z,1030.81
2016-11-14T05:34:48.281Z,1030.84
2016-11-14T05:35:28.753Z,1030.83
2016-11-14T05:36:09.248Z,1030.83
2016-11-14T05:36:49.727Z,1030.87
2016-11-14T05:37:30.225Z,1030.85
2016-11-14T05:38:10.697Z,1030.93
2016-11-14T05:38:51.186Z,1030.93
2016-11-14T05:39:31.662Z,1030.96
2016-11-14T05:40:12.137Z,1030.96
2016-11-14T05:40:52.582Z,1030.95
2016-11-14T05:41:33.037Z,1030.99
2016-11-14T05:42:13.697Z,1030.92
2016-11-14T05:42:54.192Z,1030.95
2016-11-14T05:43:34.639Z,1030.88
2016-11-14T05:44:15.112Z,1030.86
2016-11-14T05:44:55.566Z,1030.86
2016-11-14T05:45:36.070Z,1030.86
2016-11-14T05:46:16.564Z,1030.79
2016-11-14T05:46:57.052Z,1030.82
2016-11-14T05:47:37.561Z,1030.81
2016-11-14T05:48:18.076Z,1030.8
2016-11-14T05:48:58.603Z,1030.8
2016-11-14T05:49:39.053Z,1030.83
2016-11-14T05:50:19.564Z,1030.86
2016-11-14T05:50:59.987Z,1030.89
2016-11-14T05:51:40.444Z,1030.95
2016-11-14T05:52:20.919Z,1030.94
2016-11-14T05:53:01.374Z,1030.89
2016-11-14T05:53:41.850Z,1030.88
2016-11-14T05:54:22.307Z,1030.86
2016-11-14T05:55:02.807Z,1030.88
2016-11-14T05:55:43.286Z,1030.79
2016-11-14T05:56:23.772Z,1030.84
2016-11-14T05:57:04.237Z,1030.79
2016-11-14T05:57:44.723Z,1030.81
2016-11-14T05:58:25.206Z,1030.83
2016-11-14T05:59:05.708Z,1030.81
2016-11-14T05:59:46.170Z,1030.87
2016-11-14T06:00:26.625Z,1030.88
2016-11-14T06:01:07.113Z,1030.89
2016-11-14T06:01:47.588Z,1030.86
2016-11-14T06:02:28.063Z,1030.92
2016-11-14T06:03:08.561Z,1030.9
2016-11-14T06:03:49.057Z,1030.88
2016-11-14T06:04:29.547Z,1030.84
2016-11-14T06:05:10.013Z,1030.88
2016-11-14T06:05:50.493Z,1030.88
2016-11-14T06:06:30.989Z,1030.88
2016-11-14T06:07:11.458Z,1030.87
2016-11-14T06:07:51.927Z,1030.89
2016-11-14T06:08:32.427Z,1030.92
2016-11-14T06:09:12.889Z,1030.92
2016-11-14T06:09:53.403Z,1030.94
2016-11-14T06:10:33.923Z,1030.96
2016-11-14T06:11:14.351Z,1030.93
2016-11-14T06:11:54.828Z,1030.97
2016-11-14T06:12:35.323Z,1030.96
2016-11-14T06:13:15.779Z,1030.93
2016-11-14T06:13:56.296Z,1030.95
2016-11-14T06:14:36.765Z,1030.97
2016-11-14T06:15:17.292Z,1030.91
2016-11-14T06:15:57.786Z,1030.9
2016-11-14T06:16:38.282Z,1030.95
2016-11-14T06:17:18.776Z,1030.93
2016-11-14T06:17:59.255Z,1030.91
2016-11-14T06:18:39.748Z,1030.97
2016-11-14T06:19:20.257Z,1030.95
2016-11-14T06:20:00.718Z,1030.95
2016-11-14T06:20:41.203Z,1030.94
2016-11-14T06:21:21.693Z,1030.97
2016-11-14T06:22:02.209Z,1030.93
2016-11-14T06:22:42.676Z,1030.91
2016-11-14T06:23:23.174Z,1030.87
2016-11-14T06:24:03.649Z,1030.9
2016-11-14T06:24:44.125Z,1030.85
2016-11-14T06:25:24.592Z,1030.89
2016-11-14T06:26:05.088Z,1030.87
2016-11-14T06:26:45.584Z,1030.91
2016-11-14T06:27:26.050Z,1030.89
2016-11-14T06:28:06.525Z,1030.96
2016-11-14T06:28:47.037Z,1030.9
2016-11-14T06:29:27.522Z,1030.92
2016-11-14T06:30:07.957Z,1030.92
2016-11-14T06:30:48.490Z,1030.95
2016-11-14T06:31:28.986Z,1030.94
2016-11-14T06:32:09.442Z,1030.87
2016-11-14T06:32:49.916Z,1030.91
2016-11-14T06:33:30.393Z,1030.89
2016-11-14T06:34:10.880Z,1030.86
2016-11-14T06:34:51.368Z,1030.88
2016-11-14T06:35:31.871Z,1030.86
2016-11-14T06:36:12.339Z,1030.88
2016-11-14T06:36:52.825Z,1030.89
2016-11-14T06:37:33.361Z,1030.88
2016-11-14T06:38:13.854Z,1030.93
2016-11-14T06:38:54.324Z,1030.96
2016-11-14T06:39:34.792Z,1030.95
2016-11-14T06:40:15.263Z,1030.92
2016-11-14T06:40:55.750Z,1030.99
2016-11-14T06:41:36.244Z,1030.99
2016-11-14T06:42:16.733Z,1031.02
2016-11-14T06:42:57.183Z,1030.98
2016-11-14T06:43:37.818Z,1031
2016-11-14T06:44:18.424Z,1031.03
2016-11-14T06:44:58.898Z,1031.05
2016-11-14T06:45:39.407Z,1031.08
2016-11-14T06:46:19.890Z,1031.09
2016-11-14T06:47:00.387Z,1031.14
2016-11-14T06:47:40.863Z,1031.1
2016-11-14T06:48:21.396Z,1031.17
2016-11-14T06:49:01.857Z,1031.16
2016-11-14T06:49:42.343Z,1031.13
2016-11-14T06:50:22.855Z,1031.13
2016-11-14T06:51:03.922Z,1031.19
2016-11-14T06:51:44.506Z,1031.17
2016-11-14T06:52:25.200Z,1031.22
2016-11-14T06:53:05.715Z,1031.21
2016-11-14T06:53:46.164Z,1031.27
2016-11-14T06:54:26.663Z,1031.27
2016-11-14T06:55:07.147Z,1031.27
2016-11-14T06:55:47.758Z,1031.29
2016-11-14T06:56:28.309Z,1031.27
2016-11-14T06:57:08.766Z,1031.26
2016-11-14T06:57:49.341Z,1031.24
2016-11-14T06:58:29.802Z,1031.23
2016-11-14T06:59:10.361Z,1031.24
2016-11-14T06:59:50.817Z,1031.19
2016-11-14T07:00:31.303Z,1031.22
2016-11-14T07:02:49.879Z,1031.25
2016-11-14T07:03:32.064Z,1031.25
2016-11-14T07:04:12.534Z,1031.2
2016-11-14T07:04:53.020Z,1031.24
2016-11-14T07:05:33.572Z,1031.19
2016-11-14T07:06:14.104Z,1031.23
2016-11-14T07:06:54.640Z,1031.17
2016-11-14T07:07:35.118Z,1031.19
2016-11-14T07:08:15.575Z,1031.15
2016-11-14T07:08:56.062Z,1031.19
2016-11-14T07:09:36.549Z,1031.19
2016-11-14T07:10:17.047Z,1031.18
2016-11-14T07:10:57.492Z,1031.17
2016-11-14T07:11:37.980Z,1031.17
2016-11-14T07:12:18.473Z,1031.22
2016-11-14T07:12:59.032Z,1031.21
2016-11-14T07:13:39.534Z,1031.19
2016-11-14T07:14:20.014Z,1031.21
2016-11-14T07:15:00.646Z,1031.14
2016-11-14T07:15:41.276Z,1031.16
2016-11-14T07:16:21.730Z,1031.11
2016-11-14T07:17:02.245Z,1031.04
2016-11-14T07:17:42.676Z,1031.07
2016-11-14T07:18:23.174Z,1031.05
2016-11-14T07:19:03.791Z,1030.99
2016-11-14T07:19:44.249Z,1031
2016-11-14T07:20:24.739Z,1030.94
2016-11-14T07:21:05.226Z,1030.96
2016-11-14T07:21:45.729Z,1030.97
2016-11-14T07:22:26.205Z,1030.95
2016-11-14T07:23:06.691Z,1030.96
2016-11-14T07:23:47.167Z,1030.91
2016-11-14T07:24:27.655Z,1030.92
2016-11-14T07:25:08.182Z,1030.93
2016-11-14T07:25:48.681Z,1030.9
2016-11-14T07:26:29.147Z,1030.86
2016-11-14T07:27:09.771Z,1030.88
2016-11-14T07:27:50.288Z,1030.88
2016-11-14T07:28:30.772Z,1030.84
2016-11-14T07:29:11.286Z,1030.86
2016-11-14T07:29:51.816Z,1030.79
2016-11-14T07:30:32.315Z,1030.83
2016-11-14T07:31:12.870Z,1030.86
2016-11-14T07:31:53.307Z,1030.79
2016-11-14T07:32:33.792Z,1030.85
2016-11-14T07:33:14.275Z,1030.86
2016-11-14T07:33:54.790Z,1030.88
2016-11-14T07:34:35.312Z,1030.83
2016-11-14T07:35:15.884Z,1030.83
2016-11-14T07:35:56.342Z,1030.79
2016-11-14T07:36:39.554Z,1030.78
2016-11-14T07:37:20.038Z,1030.76
2016-11-14T07:38:00.733Z,1030.78
2016-11-14T07:38:41.342Z,1030.8
2016-11-14T07:46:02.431Z,1030.88
2016-11-14T07:46:49.783Z,1030.92
2016-11-14T07:49:08.314Z,1030.92
2016-11-14T07:49:48.783Z,1030.85
2016-11-14T07:51:27.846Z,1030.89
2016-11-14T07:52:08.232Z,1030.9
2016-11-14T07:52:48.739Z,1030.8
2016-11-14T07:53:29.214Z,1030.82
2016-11-14T07:54:09.699Z,1030.8
2016-11-14T07:54:50.190Z,1030.82
2016-11-14T07:55:30.648Z,1030.79
2016-11-14T07:56:11.115Z,1030.79
2016-11-14T07:56:51.672Z,1030.82
2016-11-14T07:57:32.120Z,1030.81
2016-11-14T07:58:12.592Z,1030.82
2016-11-14T07:58:53.273Z,1030.81
2016-11-14T07:59:33.950Z,1030.86
2016-11-14T08:00:14.652Z,1030.83
2016-11-14T08:00:55.259Z,1030.85
2016-11-14T08:01:35.915Z,1030.91
2016-11-14T08:02:16.568Z,1030.92
2016-11-14T08:02:57.243Z,1030.93
2016-11-14T08:03:39.780Z,1030.91
2016-11-14T08:04:20.248Z,1030.95
2016-11-14T08:05:04.203Z,1030.97
2016-11-14T08:05:45.471Z,1030.96
2016-11-14T08:06:26.123Z,1030.97
2016-11-14T08:07:06.878Z,1030.98
2016-11-14T08:07:47.550Z,1030.94
2016-11-14T08:08:28.255Z,1030.93
2016-11-14T08:09:09.012Z,1030.88
2016-11-14T08:09:50.654Z,1030.92
2016-11-14T08:10:31.416Z,1030.86
2016-11-14T08:11:12.098Z,1030.81
2016-11-14T08:11:52.786Z,1030.85
2016-11-14T08:12:33.328Z,1030.83
2016-11-14T08:13:13.839Z,1030.82
2016-11-14T08:13:54.308Z,1030.82
2016-11-14T08:14:34.765Z,1030.74
2016-11-14T08:15:15.267Z,1030.79
2016-11-14T08:15:55.783Z,1030.78
2016-11-14T08:16:36.262Z,1030.77
2016-11-14T08:17:16.811Z,1030.77
2016-11-14T08:17:57.259Z,1030.82
2016-11-14T08:18:37.756Z,1030.79
2016-11-14T08:19:18.276Z,1030.76
2016-11-14T08:19:58.746Z,1030.79
2016-11-14T08:20:39.480Z,1030.82
2016-11-14T08:21:19.943Z,1030.83
2016-11-14T08:22:02.589Z,1030.84
2016-11-14T08:22:43.076Z,1030.81
2016-11-14T08:23:23.614Z,1030.84
2016-11-14T08:24:04.147Z,1030.86
2016-11-14T08:24:44.696Z,1030.84
2016-11-14T08:25:25.167Z,1030.91
2016-11-14T08:26:05.704Z,1030.93
2016-11-14T08:26:46.248Z,1030.98
2016-11-14T08:27:26.727Z,1031.04
2016-11-14T08:28:07.240Z,1031.05
2016-11-14T08:28:47.713Z,1031.04
2016-11-14T08:29:28.221Z,1031
2016-11-14T08:30:08.683Z,1031.01
2016-11-14T08:30:49.266Z,1031.04
2016-11-14T08:31:29.735Z,1031
2016-11-14T08:32:10.317Z,1030.96
2016-11-14T08:32:50.824Z,1030.97
2016-11-14T08:33:31.290Z,1030.93
2016-11-14T08:34:11.774Z,1030.94
2016-11-14T08:34:52.260Z,1030.92
2016-11-14T08:35:32.850Z,1030.95
2016-11-14T08:36:13.736Z,1030.93
2016-11-14T08:36:54.973Z,1031.02
2016-11-14T08:37:35.807Z,1030.94
2016-11-14T08:38:16.528Z,1030.94
2016-11-14T08:38:57.283Z,1030.95
2016-11-14T08:39:37.849Z,1030.95
2016-11-14T08:40:18.313Z,1030.99
2016-11-14T08:40:58.871Z,1030.97
2016-11-14T08:41:39.349Z,1031.01
2016-11-14T08:42:20.129Z,1030.99
2016-11-14T08:43:00.781Z,1030.96
2016-11-14T08:43:41.281Z,1030.99
2016-11-14T08:44:21.794Z,1030.98
2016-11-14T08:45:02.344Z,1030.98
2016-11-14T08:45:42.877Z,1031
2016-11-14T08:46:23.446Z,1030.98
2016-11-14T08:47:03.932Z,1030.97
2016-11-14T08:47:44.462Z,1031.03
2016-11-14T08:48:24.933Z,1030.91
2016-11-14T08:49:05.424Z,1030.93
2016-11-14T08:49:45.964Z,1030.9
2016-11-14T08:52:19.548Z,1030.86
2016-11-14T08:53:02.642Z,1030.84
2016-11-14T08:53:44.452Z,1030.83
2016-11-14T08:54:25.208Z,1030.81
2016-11-14T08:55:05.843Z,1030.79
2016-11-14T08:55:46.357Z,1030.78
2016-11-14T08:56:26.798Z,1030.7
2016-11-14T08:57:07.291Z,1030.72
2016-11-14T08:57:47.802Z,1030.75
2016-11-14T08:58:28.303Z,1030.75
2016-11-14T08:59:08.791Z,1030.72
2016-11-14T08:59:49.269Z,1030.73
2016-11-14T09:00:29.795Z,1030.7
2016-11-14T09:01:10.230Z,1030.71
2016-11-14T09:01:50.720Z,1030.7
2016-11-14T09:02:31.194Z,1030.71
2016-11-14T09:03:11.682Z,1030.73
2016-11-14T09:03:52.136Z,1030.68
2016-11-14T09:04:32.659Z,1030.64
2016-11-14T09:05:13.155Z,1030.67
2016-11-14T09:05:53.656Z,1030.63
2016-11-14T09:06:34.171Z,1030.66
2016-11-14T09:07:14.686Z,1030.63
2016-11-14T09:07:55.180Z,1030.6
2016-11-14T09:08:35.691Z,1030.67
2016-11-14T09:09:16.197Z,1030.7
2016-11-14T09:09:56.958Z,1030.67
2016-11-14T09:10:37.505Z,1030.66
2016-11-14T09:11:18.042Z,1030.67
2016-11-14T09:11:58.584Z,1030.6
2016-11-14T09:12:39.096Z,1030.61
2016-11-14T09:13:19.640Z,1030.55
2016-11-14T09:14:00.109Z,1030.52
2016-11-14T09:14:40.591Z,1030.5
2016-11-14T09:15:21.069Z,1030.46
2016-11-14T09:16:01.562Z,1030.48
2016-11-14T09:16:42.017Z,1030.46
2016-11-14T09:17:22.540Z,1030.51
2016-11-14T09:18:03.144Z,1030.51
2016-11-14T09:18:43.772Z,1030.47
2016-11-14T09:19:24.256Z,1030.47
2016-11-14T09:20:04.784Z,1030.52
2016-11-14T09:20:45.759Z,1030.51
2016-11-14T09:21:26.063Z,1030.48
2016-11-14T09:22:06.541Z,1030.56
2016-11-14T09:22:47.044Z,1030.42
2016-11-14T09:23:27.896Z,1030.5
2016-11-14T09:24:08.531Z,1030.47
2016-11-14T09:24:49.403Z,1030.49
2016-11-14T09:25:31.256Z,1030.5
2016-11-14T09:26:11.253Z,1030.5
2016-11-14T09:26:51.741Z,1030.45
2016-11-14T09:27:32.224Z,1030.45
2016-11-14T09:28:12.789Z,1030.48
2016-11-14T09:28:53.307Z,1030.41
2016-11-14T09:29:34.400Z,1030.47
2016-11-14T09:30:14.877Z,1030.44
2016-11-14T09:30:55.394Z,1030.43
2016-11-14T09:31:36.097Z,1030.43
2016-11-14T09:32:16.707Z,1030.43
2016-11-14T09:32:57.185Z,1030.4
2016-11-14T09:33:37.676Z,1030.41
2016-11-14T09:34:18.174Z,1030.41
2016-11-14T09:34:58.710Z,1030.39
2016-11-14T09:35:39.181Z,1030.39
2016-11-14T09:36:19.665Z,1030.38
2016-11-14T09:37:00.129Z,1030.41
2016-11-14T09:37:43.574Z,1030.37
2016-11-14T09:38:23.836Z,1030.4
2016-11-14T09:39:04.307Z,1030.41
2016-11-14T09:39:44.852Z,1030.44
2016-11-14T09:40:25.310Z,1030.41
2016-11-14T09:41:05.996Z,1030.41
2016-11-14T09:41:46.625Z,1030.4
2016-11-14T09:42:27.092Z,1030.37
2016-11-14T09:43:07.585Z,1030.4
2016-11-14T09:43:48.040Z,1030.42
2016-11-14T09:44:28.654Z,1030.38
2016-11-14T09:45:09.505Z,1030.41
2016-11-14T09:45:49.944Z,1030.44
2016-11-14T09:46:30.496Z,1030.4
2016-11-14T09:47:10.963Z,1030.41
2016-11-14T09:47:51.482Z,1030.44
2016-11-14T09:48:31.941Z,1030.44
2016-11-14T09:49:12.425Z,1030.48
2016-11-14T09:49:52.934Z,1030.42
2016-11-14T09:50:33.524Z,1030.5
2016-11-14T09:51:13.996Z,1030.44
2016-11-14T09:51:54.527Z,1030.43
2016-11-14T09:52:35.022Z,1030.45
2016-11-14T09:53:15.507Z,1030.49
2016-11-14T09:53:56.002Z,1030.45
2016-11-14T09:54:36.503Z,1030.46
2016-11-14T09:55:17.072Z,1030.48
2016-11-14T09:55:59.854Z,1030.43
2016-11-14T09:56:40.335Z,1030.45
2016-11-14T09:57:20.807Z,1030.35
2016-11-14T09:58:01.341Z,1030.41
2016-11-14T09:58:41.884Z,1030.31
2016-11-14T09:59:22.391Z,1030.35
2016-11-14T10:00:02.909Z,1030.27
2016-11-14T10:00:45.237Z,1030.25
2016-11-14T10:01:25.827Z,1030.31
2016-11-14T10:02:06.312Z,1030.26
2016-11-14T10:02:46.834Z,1030.25
2016-11-14T10:03:27.321Z,1030.15
2016-11-14T10:04:09.674Z,1030.2
2016-11-14T10:04:50.152Z,1030.22
2016-11-14T10:05:30.789Z,1030.23
2016-11-14T10:06:11.566Z,1030.21
2016-11-14T10:06:52.049Z,1030.24
2016-11-14T10:07:32.539Z,1030.26
2016-11-14T10:08:13.038Z,1030.25
2016-11-14T10:08:53.547Z,1030.24
2016-11-14T10:09:37.589Z,1030.28
2016-11-14T10:10:18.360Z,1030.25
2016-11-14T10:10:58.820Z,1030.2
2016-11-14T10:11:39.366Z,1030.25
2016-11-14T10:12:19.806Z,1030.22
2016-11-14T10:13:00.299Z,1030.24
2016-11-14T10:13:40.785Z,1030.25
2016-11-14T10:14:21.290Z,1030.21
2016-11-14T10:15:01.770Z,1030.24
2016-11-14T10:15:44.924Z,1030.2
2016-11-14T10:16:25.440Z,1030.22
2016-11-14T10:17:09.563Z,1030.24
2016-11-14T10:17:50.044Z,1030.27
2016-11-14T10:18:31.091Z,1030.2
2016-11-14T10:19:11.601Z,1030.25
2016-11-14T10:19:52.058Z,1030.25
2016-11-14T10:20:32.587Z,1030.2
2016-11-14T10:21:13.087Z,1030.25
2016-11-14T10:21:53.594Z,1030.25
2016-11-14T10:22:34.048Z,1030.22
2016-11-14T10:23:14.558Z,1030.21
2016-11-14T10:23:55.032Z,1030.15
2016-11-14T10:24:35.521Z,1030.2
2016-11-14T10:25:16.047Z,1030.15
2016-11-14T10:25:56.534Z,1030.11
2016-11-14T10:26:37.070Z,1030.09
2016-11-14T10:28:35.167Z,1030.07
2016-11-14T10:29:15.631Z,1030.09
2016-11-14T10:29:56.095Z,1030.11
2016-11-14T10:30:36.701Z,1030.11
2016-11-14T10:31:17.199Z,1030.12
2016-11-14T10:31:57.672Z,1030.1
2016-11-14T10:32:38.158Z,1030.16
2016-11-14T10:33:18.680Z,1030.08
2016-11-14T10:33:59.168Z,1030.03
2016-11-14T10:34:39.627Z,1030.06
2016-11-14T10:35:20.147Z,1030.02
2016-11-14T10:36:00.671Z,1030.06
2016-11-14T10:36:41.180Z,1029.99
2016-11-14T10:37:21.675Z,1029.93
2016-11-14T10:38:02.193Z,1029.97
2016-11-14T10:38:42.675Z,1029.95
2016-11-14T10:39:23.129Z,1029.94
2016-11-14T10:40:03.654Z,1029.93
2016-11-14T10:40:44.163Z,1029.9
2016-11-14T10:41:24.605Z,1029.97
2016-11-14T10:42:05.093Z,1029.96
2016-11-14T10:42:45.582Z,1029.93
2016-11-14T10:43:26.957Z,1029.94
2016-11-14T10:44:07.487Z,1029.9
2016-11-14T10:44:47.958Z,1029.81
2016-11-14T10:45:28.662Z,1029.87
2016-11-14T10:46:09.135Z,1029.86
2016-11-14T10:46:49.613Z,1029.83
2016-11-14T10:47:30.112Z,1029.86
2016-11-14T10:48:17.491Z,1029.86
2016-11-14T10:49:08.383Z,1029.82
2016-11-14T10:49:58.543Z,1029.82
2016-11-14T10:50:44.245Z,1029.83
2016-11-14T10:51:24.742Z,1029.77
2016-11-14T10:52:05.217Z,1029.75
2016-11-14T10:52:45.959Z,1029.75
2016-11-14T10:53:26.546Z,1029.68
2016-11-14T10:54:07.008Z,1029.64
2016-11-14T10:54:47.492Z,1029.66
2016-11-14T10:57:15.855Z,1029.67
2016-11-14T10:57:56.340Z,1029.68
2016-11-14T10:58:36.822Z,1029.71
2016-11-14T10:59:17.284Z,1029.64
2016-11-14T10:59:57.762Z,1029.66
2016-11-14T11:00:38.231Z,1029.67
2016-11-14T11:01:18.755Z,1029.65
2016-11-14T11:01:59.317Z,1029.69
2016-11-14T11:02:39.834Z,1029.64
2016-11-14T11:03:20.386Z,1029.71
2016-11-14T11:04:00.920Z,1029.67
2016-11-14T11:04:41.410Z,1029.64
2016-11-14T11:05:21.910Z,1029.66
2016-11-14T11:06:02.427Z,1029.64
2016-11-14T11:06:45.149Z,1029.64
2016-11-14T11:07:25.634Z,1029.65
2016-11-14T11:08:06.106Z,1029.68
2016-11-14T11:08:49.679Z,1029.64
2016-11-14T11:09:32.270Z,1029.66
2016-11-14T11:10:12.737Z,1029.62
2016-11-14T11:10:56.514Z,1029.64
2016-11-14T11:11:40.246Z,1029.69
2016-11-14T11:12:20.739Z,1029.71
2016-11-14T11:13:01.222Z,1029.68
2016-11-14T11:13:45.738Z,1029.67
2016-11-14T11:14:26.260Z,1029.72
2016-11-14T11:15:07.480Z,1029.68
2016-11-14T11:15:50.451Z,1029.7
2016-11-14T11:16:30.816Z,1029.67
2016-11-14T11:17:11.379Z,1029.65
2016-11-14T11:17:51.858Z,1029.64
2016-11-14T11:18:32.357Z,1029.59
2016-11-14T11:19:15.788Z,1029.56
2016-11-14T11:19:59.124Z,1029.53
2016-11-14T11:20:41.809Z,1029.62
2016-11-14T11:21:24.335Z,1029.59
2016-11-14T11:22:06.671Z,1029.64
2016-11-14T11:22:47.225Z,1029.61
2016-11-14T11:23:33.433Z,1029.6
2016-11-14T11:24:13.956Z,1029.55
2016-11-14T11:24:57.852Z,1029.6
2016-11-14T11:25:40.383Z,1029.56
2016-11-14T11:26:20.861Z,1029.56
2016-11-14T11:27:02.805Z,1029.6
2016-11-14T11:27:43.324Z,1029.59
2016-11-14T11:28:24.601Z,1029.65
2016-11-14T11:29:05.074Z,1029.62
2016-11-14T11:29:47.670Z,1029.64
2016-11-14T11:30:30.035Z,1029.65
2016-11-14T11:31:13.591Z,1029.59
2016-11-14T11:31:56.636Z,1029.59
2016-11-14T11:32:37.139Z,1029.59
2016-11-14T11:33:18.593Z,1029.58
2016-11-14T11:34:03.445Z,1029.57
2016-11-14T11:34:46.850Z,1029.61
2016-11-14T11:35:27.351Z,1029.54
2016-11-14T11:36:10.055Z,1029.51
2016-11-14T11:36:51.645Z,1029.55
2016-11-14T11:37:33.184Z,1029.53
2016-11-14T11:38:13.737Z,1029.51
2016-11-14T11:38:55.933Z,1029.5
2016-11-14T11:39:40.227Z,1029.54
2016-11-14T11:40:24.102Z,1029.51
2016-11-14T11:41:08.555Z,1029.52
2016-11-14T11:41:54.293Z,1029.57
2016-11-14T11:42:37.937Z,1029.5
2016-11-14T11:43:20.159Z,1029.5
2016-11-14T11:44:03.475Z,1029.48
2016-11-14T11:44:44.452Z,1029.5
2016-11-14T11:45:24.968Z,1029.48
2016-11-14T11:46:05.459Z,1029.49
2016-11-14T11:46:45.944Z,1029.43
2016-11-14T11:47:26.405Z,1029.51
2016-11-14T11:48:06.859Z,1029.42
2016-11-14T11:48:47.383Z,1029.39
2016-11-14T11:49:27.925Z,1029.42
2016-11-14T11:50:08.842Z,1029.45
2016-11-14T11:50:49.221Z,1029.42
2016-11-14T11:51:29.706Z,1029.41
2016-11-14T11:52:10.204Z,1029.4
2016-11-14T11:52:50.692Z,1029.34
2016-11-14T11:53:31.194Z,1029.43
2016-11-14T11:54:11.865Z,1029.34
2016-11-14T11:54:52.384Z,1029.42
2016-11-14T11:55:32.897Z,1029.37
2016-11-14T11:56:13.402Z,1029.38
2016-11-14T11:56:53.984Z,1029.32
2016-11-14T11:57:34.481Z,1029.32
2016-11-14T11:58:15.001Z,1029.32
2016-11-14T11:58:55.573Z,1029.26
2016-11-14T11:59:36.159Z,1029.26
2016-11-14T12:00:16.714Z,1029.32
2016-11-14T12:00:57.205Z,1029.25
2016-11-14T12:01:37.692Z,1029.23
2016-11-14T12:02:18.176Z,1029.29
2016-11-14T12:02:58.711Z,1029.27
2016-11-14T12:03:39.222Z,1029.28
2016-11-14T12:04:19.720Z,1029.27
2016-11-14T12:05:00.303Z,1029.26
2016-11-14T12:05:40.819Z,1029.29
2016-11-14T12:06:21.301Z,1029.35
2016-11-14T12:07:01.818Z,1029.3
2016-11-14T12:07:42.287Z,1029.3
2016-11-14T12:08:22.790Z,1029.32
2016-11-14T12:09:03.292Z,1029.41
2016-11-14T12:09:43.892Z,1029.34
2016-11-14T12:10:24.347Z,1029.34
2016-11-14T12:11:04.951Z,1029.32
2016-11-14T12:11:45.459Z,1029.3
2016-11-14T12:12:26.013Z,1029.31
2016-11-14T12:13:06.459Z,1029.3
2016-11-14T12:13:46.942Z,1029.3
2016-11-14T12:14:27.448Z,1029.33
2016-11-14T12:15:08.262Z,1029.27
2016-11-14T12:15:48.737Z,1029.31
2016-11-14T12:16:29.237Z,1029.28
2016-11-14T12:17:09.709Z,1029.3
2016-11-14T12:19:05.862Z,1029.24
2016-11-14T12:19:48.988Z,1029.24
2016-11-14T12:20:30.056Z,1029.25
2016-11-14T12:21:18.829Z,1029.28
2016-11-14T12:22:02.759Z,1029.29
2016-11-14T12:22:43.298Z,1029.28
2016-11-14T12:23:24.420Z,1029.29
2016-11-14T12:24:04.928Z,1029.26
2016-11-14T12:24:45.430Z,1029.29
2016-11-14T12:25:25.986Z,1029.26
2016-11-14T12:26:06.465Z,1029.25
2016-11-14T12:26:47.002Z,1029.23
2016-11-14T12:27:27.499Z,1029.23
2016-11-14T12:28:07.998Z,1029.23
2016-11-14T12:28:48.545Z,1029.23
2016-11-14T12:29:29.492Z,1029.24
2016-11-14T12:30:09.983Z,1029.23
2016-11-14T12:30:50.630Z,1029.25
2016-11-14T12:31:32.048Z,1029.2
2016-11-14T12:32:13.169Z,1029.24
2016-11-14T12:32:53.758Z,1029.21
2016-11-14T12:33:34.315Z,1029.25
2016-11-14T12:34:16.987Z,1029.27
2016-11-14T12:34:57.096Z,1029.26
2016-11-14T12:35:39.540Z,1029.3
2016-11-14T12:36:20.031Z,1029.22
2016-11-14T12:37:00.530Z,1029.24
2016-11-14T12:37:41.019Z,1029.28
2016-11-14T12:38:23.481Z,1029.23
2016-11-14T12:40:53.987Z,1029.25
2016-11-14T12:41:34.436Z,1029.22
2016-11-14T12:42:14.963Z,1029.22
2016-11-14T12:42:55.476Z,1029.17
2016-11-14T12:43:35.936Z,1029.23
2016-11-14T12:44:16.473Z,1029.18
2016-11-14T12:44:56.962Z,1029.09
2016-11-14T12:45:37.433Z,1029.15
2016-11-14T12:46:17.972Z,1029.11
2016-11-14T12:46:58.548Z,1029.13
2016-11-14T12:47:39.080Z,1029.08
2016-11-14T12:48:19.577Z,1029.14
2016-11-14T12:49:00.044Z,1029.09
2016-11-14T12:49:40.529Z,1029.14
2016-11-14T12:50:21.019Z,1029.09
2016-11-14T12:51:01.479Z,1029.11
2016-11-14T12:51:42.038Z,1029.06
2016-11-14T12:52:22.519Z,1029.06
2016-11-14T12:53:03.036Z,1029.04
2016-11-14T12:53:43.567Z,1029.05
2016-11-14T12:54:24.027Z,1029.07
2016-11-14T12:55:04.523Z,1029
2016-11-14T12:55:45.113Z,1029
2016-11-14T12:56:25.583Z,1029.01
2016-11-14T12:57:06.299Z,1028.97
2016-11-14T12:57:46.739Z,1028.97
2016-11-14T12:58:27.286Z,1028.95
2016-11-14T12:59:07.804Z,1028.97
2016-11-14T12:59:48.500Z,1028.92
2016-11-14T13:00:29.044Z,1028.94
2016-11-14T13:01:09.544Z,1028.93
2016-11-14T13:01:50.027Z,1028.91
2016-11-14T13:02:30.513Z,1028.91
2016-11-14T13:03:11.004Z,1028.92
2016-11-14T13:03:51.548Z,1028.92
2016-11-14T13:04:32.074Z,1028.92
2016-11-14T13:05:12.618Z,1028.92
2016-11-14T13:05:53.250Z,1028.89
2016-11-14T13:06:33.788Z,1028.92
2016-11-14T13:07:14.285Z,1028.87
2016-11-14T13:07:54.885Z,1028.81
2016-11-14T13:08:35.432Z,1028.85
2016-11-14T13:09:15.902Z,1028.76
2016-11-14T13:09:56.391Z,1028.79
2016-11-14T13:10:36.892Z,1028.8
2016-11-14T13:11:17.433Z,1028.84
2016-11-14T13:11:57.904Z,1028.84
2016-11-14T13:12:38.433Z,1028.79
2016-11-14T13:13:19.067Z,1028.74
2016-11-14T13:13:59.565Z,1028.74
2016-11-14T13:14:40.072Z,1028.74
2016-11-14T13:15:20.643Z,1028.71
2016-11-14T13:16:01.130Z,1028.71
2016-11-14T13:16:41.668Z,1028.67
2016-11-14T13:17:22.175Z,1028.71
2016-11-14T13:18:02.688Z,1028.71
2016-11-14T13:18:43.135Z,1028.66
2016-11-14T13:19:25.641Z,1028.68
2016-11-14T13:20:06.093Z,1028.67
2016-11-14T13:20:46.566Z,1028.65
2016-11-14T13:21:27.059Z,1028.55
2016-11-14T13:22:07.533Z,1028.6
2016-11-14T13:22:48.019Z,1028.58
2016-11-14T13:23:28.526Z,1028.56
2016-11-14T13:24:10.903Z,1028.56
2016-11-14T13:24:51.401Z,1028.58
2016-11-14T13:25:31.918Z,1028.5
2016-11-14T13:26:12.457Z,1028.55
2016-11-14T13:26:53.188Z,1028.57
2016-11-14T13:27:33.836Z,1028.61
2016-11-14T13:28:15.146Z,1028.53
2016-11-14T13:28:55.794Z,1028.58
2016-11-14T13:29:36.241Z,1028.5
2016-11-14T13:30:16.771Z,1028.57
2016-11-14T13:30:57.262Z,1028.53
2016-11-14T13:31:37.754Z,1028.57
2016-11-14T13:32:18.258Z,1028.55
2016-11-14T13:32:58.748Z,1028.55
2016-11-14T13:33:39.229Z,1028.54
2016-11-14T13:34:19.747Z,1028.45
2016-11-14T13:35:00.231Z,1028.49
2016-11-14T13:35:40.748Z,1028.49
2016-11-14T13:36:22.943Z,1028.44
2016-11-14T13:37:03.412Z,1028.44
2016-11-14T13:37:44.201Z,1028.46
2016-11-14T13:38:24.742Z,1028.43
2016-11-14T13:39:05.238Z,1028.43
2016-11-14T13:39:45.859Z,1028.4
2016-11-14T13:40:26.383Z,1028.31
2016-11-14T13:41:06.891Z,1028.39
2016-11-14T13:41:47.375Z,1028.38
2016-11-14T13:42:27.955Z,1028.35
2016-11-14T13:43:08.481Z,1028.35